sensor_id;sensor_type;location;lat;lon;timestamp;P1;durP1;ratioP1;P2;durP2;ratioP2
80776;SDS011;70169;51.262;6.336;2024-02-26T00:00:37;3.70;;;1.20;;
80776;SDS011;70169;51.262;6.336;2024-02-26T00:02:53;2.65;;;1.27;;
80776;SDS011;70169;51.262;6.336;2024-02-26T00:05:09;2.87;;;1.33;;
80776;SDS011;70169;51.262;6.336;2024-02-26T00:07:24;3.30;;;1.20;;
80776;SDS011;70169;51.262;6.336;2024-02-26T00:09:39;3.13;;;1.13;;
80776;SDS011;70169;51.262;6.336;2024-02-26T00:11:55;3.27;;;1.00;;
80776;SDS011;70169;51.262;6.336;2024-02-26T00:14:10;2.50;;;1.13;;
80776;SDS011;70169;51.262;6.336;2024-02-26T00:16:25;2.20;;;1.17;;
80776;SDS011;70169;51.262;6.336;2024-02-26T00:18:41;3.23;;;1.30;;
80776;SDS011;70169;51.262;6.336;2024-02-26T00:20:56;3.90;;;1.60;;
80776;SDS011;70169;51.262;6.336;2024-02-26T00:23:11;2.80;;;1.20;;
80776;SDS011;70169;51.262;6.336;2024-02-26T00:25:30;4.05;;;1.10;;
80776;SDS011;70169;51.262;6.336;2024-02-26T00:27:45;4.47;;;1.60;;
80776;SDS011;70169;51.262;6.336;2024-02-26T00:30:01;2.10;;;1.10;;
80776;SDS011;70169;51.262;6.336;2024-02-26T00:32:16;2.63;;;1.17;;
80776;SDS011;70169;51.262;6.336;2024-02-26T00:34:31;2.13;;;1.13;;
80776;SDS011;70169;51.262;6.336;2024-02-26T00:36:47;2.97;;;1.30;;
80776;SDS011;70169;51.262;6.336;2024-02-26T00:39:02;2.20;;;1.23;;
80776;SDS011;70169;51.262;6.336;2024-02-26T00:41:18;3.67;;;1.23;;
80776;SDS011;70169;51.262;6.336;2024-02-26T00:43:35;3.83;;;1.52;;
80776;SDS011;70169;51.262;6.336;2024-02-26T00:45:53;3.50;;;1.52;;
80776;SDS011;70169;51.262;6.336;2024-02-26T00:48:08;3.10;;;1.73;;
80776;SDS011;70169;51.262;6.336;2024-02-26T00:50:23;3.50;;;1.50;;
80776;SDS011;70169;51.262;6.336;2024-02-26T00:52:38;2.80;;;1.37;;
80776;SDS011;70169;51.262;6.336;2024-02-26T00:54:54;3.10;;;1.30;;
80776;SDS011;70169;51.262;6.336;2024-02-26T00:57:09;2.63;;;1.40;;
80776;SDS011;70169;51.262;6.336;2024-02-26T00:59:25;3.47;;;1.42;;
80776;SDS011;70169;51.262;6.336;2024-02-26T01:01:40;2.77;;;1.50;;
80776;SDS011;70169;51.262;6.336;2024-02-26T01:03:55;3.00;;;1.53;;
80776;SDS011;70169;51.262;6.336;2024-02-26T01:06:10;2.63;;;1.30;;
80776;SDS011;70169;51.262;6.336;2024-02-26T01:08:26;3.13;;;1.47;;
80776;SDS011;70169;51.262;6.336;2024-02-26T01:10:41;2.50;;;1.30;;
80776;SDS011;70169;51.262;6.336;2024-02-26T01:12:56;2.10;;;1.23;;
80776;SDS011;70169;51.262;6.336;2024-02-26T01:15:12;3.07;;;1.57;;
80776;SDS011;70169;51.262;6.336;2024-02-26T01:17:27;2.93;;;1.33;;
80776;SDS011;70169;51.262;6.336;2024-02-26T01:19:42;2.87;;;1.57;;
80776;SDS011;70169;51.262;6.336;2024-02-26T01:21:58;3.97;;;1.60;;
80776;SDS011;70169;51.262;6.336;2024-02-26T01:24:13;3.00;;;1.47;;
80776;SDS011;70169;51.262;6.336;2024-02-26T01:26:28;2.72;;;1.55;;
80776;SDS011;70169;51.262;6.336;2024-02-26T01:28:44;2.87;;;1.43;;
80776;SDS011;70169;51.262;6.336;2024-02-26T01:30:59;3.60;;;1.63;;
80776;SDS011;70169;51.262;6.336;2024-02-26T01:33:15;3.63;;;1.60;;
80776;SDS011;70169;51.262;6.336;2024-02-26T01:35:30;4.20;;;1.63;;
80776;SDS011;70169;51.262;6.336;2024-02-26T01:37:45;3.23;;;1.70;;
80776;SDS011;70169;51.262;6.336;2024-02-26T01:40:00;4.33;;;1.90;;
80776;SDS011;70169;51.262;6.336;2024-02-26T01:42:18;3.22;;;1.83;;
80776;SDS011;70169;51.262;6.336;2024-02-26T01:44:34;3.03;;;1.60;;
80776;SDS011;70169;51.262;6.336;2024-02-26T01:46:49;3.03;;;1.63;;
80776;SDS011;70169;51.262;6.336;2024-02-26T01:49:04;4.07;;;1.70;;
80776;SDS011;70169;51.262;6.336;2024-02-26T01:51:21;2.40;;;1.52;;
80776;SDS011;70169;51.262;6.336;2024-02-26T01:53:37;3.20;;;1.70;;
80776;SDS011;70169;51.262;6.336;2024-02-26T01:55:53;3.25;;;1.52;;
80776;SDS011;70169;51.262;6.336;2024-02-26T01:58:08;4.10;;;1.73;;
80776;SDS011;70169;51.262;6.336;2024-02-26T02:00:24;3.22;;;1.55;;
80776;SDS011;70169;51.262;6.336;2024-02-26T02:02:40;3.53;;;1.50;;
80776;SDS011;70169;51.262;6.336;2024-02-26T02:04:56;3.03;;;1.60;;
80776;SDS011;70169;51.262;6.336;2024-02-26T02:07:12;3.87;;;1.77;;
80776;SDS011;70169;51.262;6.336;2024-02-26T02:09:28;3.03;;;1.63;;
80776;SDS011;70169;51.262;6.336;2024-02-26T02:11:43;4.38;;;1.60;;
80776;SDS011;70169;51.262;6.336;2024-02-26T02:13:59;3.42;;;1.98;;
80776;SDS011;70169;51.262;6.336;2024-02-26T02:16:14;3.53;;;1.73;;
80776;SDS011;70169;51.262;6.336;2024-02-26T02:18:30;6.85;;;2.08;;
80776;SDS011;70169;51.262;6.336;2024-02-26T02:20:46;3.90;;;2.00;;
80776;SDS011;70169;51.262;6.336;2024-02-26T02:23:01;4.03;;;1.77;;
80776;SDS011;70169;51.262;6.336;2024-02-26T02:25:17;3.60;;;2.00;;
80776;SDS011;70169;51.262;6.336;2024-02-26T02:27:32;4.27;;;1.97;;
80776;SDS011;70169;51.262;6.336;2024-02-26T02:29:48;4.65;;;2.08;;
80776;SDS011;70169;51.262;6.336;2024-02-26T02:32:04;4.38;;;1.85;;
80776;SDS011;70169;51.262;6.336;2024-02-26T02:34:20;2.65;;;1.60;;
80776;SDS011;70169;51.262;6.336;2024-02-26T02:36:48;3.10;;;1.80;;
80776;SDS011;70169;51.262;6.336;2024-02-26T02:39:04;2.63;;;1.65;;
80776;SDS011;70169;51.262;6.336;2024-02-26T02:41:19;3.33;;;1.80;;
80776;SDS011;70169;51.262;6.336;2024-02-26T02:43:34;2.60;;;1.45;;
80776;SDS011;70169;51.262;6.336;2024-02-26T02:45:49;2.60;;;1.40;;
80776;SDS011;70169;51.262;6.336;2024-02-26T02:48:05;2.70;;;1.50;;
80776;SDS011;70169;51.262;6.336;2024-02-26T02:50:20;2.92;;;1.40;;
80776;SDS011;70169;51.262;6.336;2024-02-26T02:52:35;2.60;;;1.50;;
80776;SDS011;70169;51.262;6.336;2024-02-26T02:54:51;3.20;;;1.50;;
80776;SDS011;70169;51.262;6.336;2024-02-26T02:57:06;3.17;;;1.83;;
80776;SDS011;70169;51.262;6.336;2024-02-26T02:59:21;3.63;;;1.63;;
80776;SDS011;70169;51.262;6.336;2024-02-26T03:01:37;4.03;;;1.93;;
80776;SDS011;70169;51.262;6.336;2024-02-26T03:03:52;4.30;;;2.10;;
80776;SDS011;70169;51.262;6.336;2024-02-26T03:06:07;4.03;;;1.87;;
80776;SDS011;70169;51.262;6.336;2024-02-26T03:08:23;4.33;;;1.90;;
80776;SDS011;70169;51.262;6.336;2024-02-26T03:10:40;4.25;;;2.30;;
80776;SDS011;70169;51.262;6.336;2024-02-26T03:12:57;4.03;;;2.10;;
80776;SDS011;70169;51.262;6.336;2024-02-26T03:15:12;5.97;;;2.20;;
80776;SDS011;70169;51.262;6.336;2024-02-26T03:17:28;5.37;;;2.33;;
80776;SDS011;70169;51.262;6.336;2024-02-26T03:19:44;4.53;;;2.60;;
80776;SDS011;70169;51.262;6.336;2024-02-26T03:22:01;5.03;;;2.60;;
80776;SDS011;70169;51.262;6.336;2024-02-26T03:24:17;4.60;;;2.60;;
80776;SDS011;70169;51.262;6.336;2024-02-26T03:26:32;4.97;;;2.40;;
80776;SDS011;70169;51.262;6.336;2024-02-26T03:28:48;5.97;;;2.73;;
80776;SDS011;70169;51.262;6.336;2024-02-26T03:31:03;4.97;;;2.57;;
80776;SDS011;70169;51.262;6.336;2024-02-26T03:33:18;5.32;;;2.47;;
80776;SDS011;70169;51.262;6.336;2024-02-26T03:35:34;4.70;;;2.40;;
80776;SDS011;70169;51.262;6.336;2024-02-26T03:37:49;4.70;;;2.60;;
80776;SDS011;70169;51.262;6.336;2024-02-26T03:40:06;6.47;;;3.15;;
80776;SDS011;70169;51.262;6.336;2024-02-26T03:42:22;5.65;;;3.13;;
80776;SDS011;70169;51.262;6.336;2024-02-26T03:44:38;6.23;;;2.60;;
80776;SDS011;70169;51.262;6.336;2024-02-26T03:46:53;6.70;;;2.90;;
80776;SDS011;70169;51.262;6.336;2024-02-26T03:49:08;4.10;;;2.30;;
80776;SDS011;70169;51.262;6.336;2024-02-26T03:51:24;6.13;;;2.85;;
80776;SDS011;70169;51.262;6.336;2024-02-26T03:53:39;5.47;;;2.60;;
80776;SDS011;70169;51.262;6.336;2024-02-26T03:55:54;5.70;;;2.83;;
80776;SDS011;70169;51.262;6.336;2024-02-26T03:58:12;6.30;;;2.78;;
80776;SDS011;70169;51.262;6.336;2024-02-26T04:02:46;5.75;;;2.65;;
80776;SDS011;70169;51.262;6.336;2024-02-26T04:05:02;5.65;;;2.70;;
80776;SDS011;70169;51.262;6.336;2024-02-26T04:07:17;7.07;;;2.92;;
80776;SDS011;70169;51.262;6.336;2024-02-26T04:09:32;3.97;;;2.30;;
80776;SDS011;70169;51.262;6.336;2024-02-26T04:11:48;5.28;;;2.38;;
80776;SDS011;70169;51.262;6.336;2024-02-26T04:14:03;4.57;;;2.30;;
80776;SDS011;70169;51.262;6.336;2024-02-26T04:16:18;4.40;;;2.30;;
80776;SDS011;70169;51.262;6.336;2024-02-26T04:18:34;5.72;;;3.05;;
80776;SDS011;70169;51.262;6.336;2024-02-26T04:20:49;6.07;;;2.90;;
80776;SDS011;70169;51.262;6.336;2024-02-26T04:23:06;6.22;;;3.40;;
80776;SDS011;70169;51.262;6.336;2024-02-26T04:25:21;8.53;;;3.30;;
80776;SDS011;70169;51.262;6.336;2024-02-26T04:27:37;7.43;;;3.33;;
80776;SDS011;70169;51.262;6.336;2024-02-26T04:29:56;7.45;;;3.30;;
80776;SDS011;70169;51.262;6.336;2024-02-26T04:32:11;6.45;;;3.33;;
80776;SDS011;70169;51.262;6.336;2024-02-26T04:34:27;7.33;;;3.70;;
80776;SDS011;70169;51.262;6.336;2024-02-26T04:36:42;5.90;;;3.30;;
80776;SDS011;70169;51.262;6.336;2024-02-26T04:38:57;6.97;;;3.57;;
80776;SDS011;70169;51.262;6.336;2024-02-26T04:41:13;5.20;;;3.03;;
80776;SDS011;70169;51.262;6.336;2024-02-26T04:43:28;7.10;;;3.35;;
80776;SDS011;70169;51.262;6.336;2024-02-26T04:45:44;4.70;;;2.87;;
80776;SDS011;70169;51.262;6.336;2024-02-26T04:47:59;6.60;;;2.90;;
80776;SDS011;70169;51.262;6.336;2024-02-26T04:50:15;6.32;;;3.30;;
80776;SDS011;70169;51.262;6.336;2024-02-26T04:52:30;5.82;;;2.70;;
80776;SDS011;70169;51.262;6.336;2024-02-26T04:54:45;6.00;;;2.60;;
80776;SDS011;70169;51.262;6.336;2024-02-26T04:57:01;7.83;;;2.80;;
80776;SDS011;70169;51.262;6.336;2024-02-26T04:59:16;5.78;;;3.28;;
80776;SDS011;70169;51.262;6.336;2024-02-26T05:01:32;5.75;;;2.80;;
80776;SDS011;70169;51.262;6.336;2024-02-26T05:03:47;5.20;;;3.40;;
80776;SDS011;70169;51.262;6.336;2024-02-26T05:06:03;5.60;;;3.30;;
80776;SDS011;70169;51.262;6.336;2024-02-26T05:08:19;5.53;;;3.13;;
80776;SDS011;70169;51.262;6.336;2024-02-26T05:10:34;5.95;;;3.58;;
80776;SDS011;70169;51.262;6.336;2024-02-26T05:12:54;5.47;;;3.45;;
80776;SDS011;70169;51.262;6.336;2024-02-26T05:15:09;7.27;;;3.40;;
80776;SDS011;70169;51.262;6.336;2024-02-26T05:17:25;4.57;;;3.08;;
80776;SDS011;70169;51.262;6.336;2024-02-26T05:19:40;5.53;;;3.30;;
80776;SDS011;70169;51.262;6.336;2024-02-26T05:21:55;6.47;;;3.50;;
80776;SDS011;70169;51.262;6.336;2024-02-26T05:24:11;5.32;;;3.47;;
80776;SDS011;70169;51.262;6.336;2024-02-26T05:26:27;5.63;;;3.33;;
80776;SDS011;70169;51.262;6.336;2024-02-26T05:28:42;5.38;;;3.38;;
80776;SDS011;70169;51.262;6.336;2024-02-26T05:30:58;5.80;;;3.55;;
80776;SDS011;70169;51.262;6.336;2024-02-26T05:33:13;7.85;;;3.05;;
80776;SDS011;70169;51.262;6.336;2024-02-26T05:35:28;8.57;;;3.87;;
80776;SDS011;70169;51.262;6.336;2024-02-26T05:37:44;5.67;;;3.57;;
80776;SDS011;70169;51.262;6.336;2024-02-26T05:39:59;6.28;;;3.40;;
80776;SDS011;70169;51.262;6.336;2024-02-26T05:42:14;4.80;;;3.53;;
80776;SDS011;70169;51.262;6.336;2024-02-26T05:44:30;5.60;;;3.60;;
80776;SDS011;70169;51.262;6.336;2024-02-26T05:46:45;6.90;;;3.15;;
80776;SDS011;70169;51.262;6.336;2024-02-26T05:49:01;6.65;;;3.40;;
80776;SDS011;70169;51.262;6.336;2024-02-26T05:51:16;6.40;;;3.93;;
80776;SDS011;70169;51.262;6.336;2024-02-26T05:53:31;6.85;;;4.05;;
80776;SDS011;70169;51.262;6.336;2024-02-26T05:55:47;7.93;;;3.67;;
80776;SDS011;70169;51.262;6.336;2024-02-26T05:58:02;5.50;;;3.67;;
80776;SDS011;70169;51.262;6.336;2024-02-26T06:00:18;6.38;;;3.80;;
80776;SDS011;70169;51.262;6.336;2024-02-26T06:02:33;6.32;;;4.05;;
80776;SDS011;70169;51.262;6.336;2024-02-26T06:04:49;6.00;;;3.83;;
80776;SDS011;70169;51.262;6.336;2024-02-26T06:07:04;5.87;;;3.70;;
80776;SDS011;70169;51.262;6.336;2024-02-26T06:09:20;6.30;;;4.00;;
80776;SDS011;70169;51.262;6.336;2024-02-26T06:11:35;7.00;;;3.90;;
80776;SDS011;70169;51.262;6.336;2024-02-26T06:26:52;7.70;;;5.40;;
80776;SDS011;70169;51.262;6.336;2024-02-26T06:29:13;7.22;;;4.90;;
80776;SDS011;70169;51.262;6.336;2024-02-26T06:31:34;9.07;;;4.80;;
80776;SDS011;70169;51.262;6.336;2024-02-26T06:34:07;8.18;;;5.25;;
80776;SDS011;70169;51.262;6.336;2024-02-26T06:36:29;8.70;;;4.78;;
80776;SDS011;70169;51.262;6.336;2024-02-26T06:38:47;9.38;;;5.50;;
80776;SDS011;70169;51.262;6.336;2024-02-26T06:41:02;9.30;;;5.43;;
80776;SDS011;70169;51.262;6.336;2024-02-26T06:43:18;7.72;;;4.72;;
80776;SDS011;70169;51.262;6.336;2024-02-26T06:45:36;10.77;;;5.55;;
80776;SDS011;70169;51.262;6.336;2024-02-26T06:48:05;8.88;;;5.20;;
80776;SDS011;70169;51.262;6.336;2024-02-26T06:53:57;7.70;;;4.80;;
80776;SDS011;70169;51.262;6.336;2024-02-26T06:59:37;8.52;;;5.25;;
80776;SDS011;70169;51.262;6.336;2024-02-26T07:02:07;7.85;;;4.97;;
80776;SDS011;70169;51.262;6.336;2024-02-26T07:04:22;9.95;;;6.13;;
80776;SDS011;70169;51.262;6.336;2024-02-26T07:07:00;10.93;;;6.45;;
80776;SDS011;70169;51.262;6.336;2024-02-26T07:09:18;10.47;;;7.10;;
80776;SDS011;70169;51.262;6.336;2024-02-26T07:11:34;9.75;;;6.03;;
80776;SDS011;70169;51.262;6.336;2024-02-26T07:13:59;7.90;;;5.53;;
80776;SDS011;70169;51.262;6.336;2024-02-26T07:22:33;10.43;;;5.07;;
80776;SDS011;70169;51.262;6.336;2024-02-26T07:52:35;10.75;;;5.78;;
80776;SDS011;70169;51.262;6.336;2024-02-26T07:54:51;11.07;;;6.10;;
80776;SDS011;70169;51.262;6.336;2024-02-26T07:57:12;10.43;;;5.78;;
80776;SDS011;70169;51.262;6.336;2024-02-26T08:06:09;7.70;;;4.30;;
80776;SDS011;70169;51.262;6.336;2024-02-26T08:08:24;8.50;;;4.80;;
80776;SDS011;70169;51.262;6.336;2024-02-26T08:10:40;9.43;;;4.80;;
80776;SDS011;70169;51.262;6.336;2024-02-26T08:12:55;7.93;;;4.57;;
80776;SDS011;70169;51.262;6.336;2024-02-26T08:15:13;7.97;;;5.13;;
80776;SDS011;70169;51.262;6.336;2024-02-26T08:17:33;7.85;;;4.88;;
80776;SDS011;70169;51.262;6.336;2024-02-26T08:19:52;7.35;;;4.78;;
80776;SDS011;70169;51.262;6.336;2024-02-26T08:22:21;9.40;;;5.82;;
80776;SDS011;70169;51.262;6.336;2024-02-26T08:24:36;8.15;;;4.88;;
80776;SDS011;70169;51.262;6.336;2024-02-26T08:26:52;10.13;;;5.87;;
80776;SDS011;70169;51.262;6.336;2024-02-26T08:29:07;8.68;;;5.88;;
80776;SDS011;70169;51.262;6.336;2024-02-26T08:31:23;10.55;;;5.93;;
80776;SDS011;70169;51.262;6.336;2024-02-26T08:33:38;13.18;;;7.38;;
80776;SDS011;70169;51.262;6.336;2024-02-26T08:35:54;12.18;;;7.00;;
80776;SDS011;70169;51.262;6.336;2024-02-26T08:38:09;9.90;;;6.28;;
80776;SDS011;70169;51.262;6.336;2024-02-26T08:44:14;10.15;;;5.32;;
80776;SDS011;70169;51.262;6.336;2024-02-26T08:46:30;9.23;;;5.07;;
80776;SDS011;70169;51.262;6.336;2024-02-26T08:49:08;8.70;;;4.38;;
80776;SDS011;70169;51.262;6.336;2024-02-26T08:51:34;8.52;;;4.63;;
80776;SDS011;70169;51.262;6.336;2024-02-26T08:53:49;10.27;;;4.57;;
80776;SDS011;70169;51.262;6.336;2024-02-26T08:56:08;12.55;;;7.20;;
80776;SDS011;70169;51.262;6.336;2024-02-26T08:58:23;17.73;;;8.40;;
80776;SDS011;70169;51.262;6.336;2024-02-26T09:00:39;37.10;;;17.38;;
80776;SDS011;70169;51.262;6.336;2024-02-26T09:02:54;28.77;;;12.00;;
80776;SDS011;70169;51.262;6.336;2024-02-26T09:05:10;20.35;;;9.23;;
80776;SDS011;70169;51.262;6.336;2024-02-26T09:07:25;64.10;;;25.25;;
80776;SDS011;70169;51.262;6.336;2024-02-26T09:09:41;39.92;;;16.40;;
80776;SDS011;70169;51.262;6.336;2024-02-26T09:11:56;11.20;;;6.25;;
80776;SDS011;70169;51.262;6.336;2024-02-26T09:14:12;8.55;;;6.28;;
80776;SDS011;70169;51.262;6.336;2024-02-26T09:16:27;10.93;;;6.35;;
80776;SDS011;70169;51.262;6.336;2024-02-26T09:18:43;10.25;;;6.22;;
80776;SDS011;70169;51.262;6.336;2024-02-26T09:20:58;11.55;;;6.55;;
80776;SDS011;70169;51.262;6.336;2024-02-26T09:23:13;12.27;;;7.87;;
80776;SDS011;70169;51.262;6.336;2024-02-26T09:25:29;11.10;;;7.00;;
80776;SDS011;70169;51.262;6.336;2024-02-26T09:27:44;10.40;;;6.95;;
80776;SDS011;70169;51.262;6.336;2024-02-26T09:30:01;9.85;;;6.78;;
80776;SDS011;70169;51.262;6.336;2024-02-26T09:32:16;11.88;;;7.35;;
80776;SDS011;70169;51.262;6.336;2024-02-26T09:34:32;11.00;;;7.35;;
80776;SDS011;70169;51.262;6.336;2024-02-26T09:36:48;13.80;;;8.73;;
80776;SDS011;70169;51.262;6.336;2024-02-26T09:39:04;12.70;;;7.82;;
80776;SDS011;70169;51.262;6.336;2024-02-26T09:41:19;10.27;;;6.20;;
80776;SDS011;70169;51.262;6.336;2024-02-26T09:43:38;10.73;;;6.93;;
80776;SDS011;70169;51.262;6.336;2024-02-26T09:45:58;10.18;;;6.85;;
80776;SDS011;70169;51.262;6.336;2024-02-26T09:48:14;9.90;;;6.25;;
80776;SDS011;70169;51.262;6.336;2024-02-26T09:50:34;11.43;;;7.57;;
80776;SDS011;70169;51.262;6.336;2024-02-26T09:53:05;10.18;;;6.15;;
80776;SDS011;70169;51.262;6.336;2024-02-26T09:55:27;8.60;;;5.57;;
80776;SDS011;70169;51.262;6.336;2024-02-26T09:58:00;9.38;;;6.10;;
80776;SDS011;70169;51.262;6.336;2024-02-26T10:00:17;9.18;;;5.97;;
80776;SDS011;70169;51.262;6.336;2024-02-26T10:02:55;9.77;;;6.15;;
80776;SDS011;70169;51.262;6.336;2024-02-26T10:05:19;8.23;;;4.95;;
80776;SDS011;70169;51.262;6.336;2024-02-26T10:07:37;10.18;;;6.55;;
80776;SDS011;70169;51.262;6.336;2024-02-26T10:10:08;11.02;;;5.90;;
80776;SDS011;70169;51.262;6.336;2024-02-26T10:12:40;10.25;;;5.75;;
80776;SDS011;70169;51.262;6.336;2024-02-26T10:15:09;7.72;;;5.07;;
80776;SDS011;70169;51.262;6.336;2024-02-26T10:17:56;9.23;;;5.60;;
80776;SDS011;70169;51.262;6.336;2024-02-26T10:20:21;11.07;;;5.78;;
80776;SDS011;70169;51.262;6.336;2024-02-26T10:22:47;7.70;;;5.18;;
80776;SDS011;70169;51.262;6.336;2024-02-26T10:25:19;11.60;;;7.03;;
80776;SDS011;70169;51.262;6.336;2024-02-26T10:27:44;8.70;;;5.72;;
80776;SDS011;70169;51.262;6.336;2024-02-26T10:30:20;9.82;;;6.25;;
80776;SDS011;70169;51.262;6.336;2024-02-26T10:32:37;13.75;;;9.20;;
80776;SDS011;70169;51.262;6.336;2024-02-26T10:34:56;13.57;;;8.43;;
80776;SDS011;70169;51.262;6.336;2024-02-26T10:37:12;13.07;;;7.70;;
80776;SDS011;70169;51.262;6.336;2024-02-26T10:39:27;11.87;;;7.33;;
80776;SDS011;70169;51.262;6.336;2024-02-26T10:41:43;14.43;;;7.30;;
80776;SDS011;70169;51.262;6.336;2024-02-26T10:44:00;10.25;;;7.20;;
80776;SDS011;70169;51.262;6.336;2024-02-26T10:46:15;13.40;;;7.17;;
80776;SDS011;70169;51.262;6.336;2024-02-26T10:48:31;10.52;;;6.72;;
80776;SDS011;70169;51.262;6.336;2024-02-26T10:50:47;11.47;;;6.60;;
80776;SDS011;70169;51.262;6.336;2024-02-26T10:55:20;9.05;;;5.47;;
80776;SDS011;70169;51.262;6.336;2024-02-26T10:57:39;8.30;;;5.47;;
80776;SDS011;70169;51.262;6.336;2024-02-26T10:59:55;11.30;;;6.75;;
80776;SDS011;70169;51.262;6.336;2024-02-26T11:02:14;9.70;;;6.60;;
80776;SDS011;70169;51.262;6.336;2024-02-26T11:04:30;11.23;;;6.65;;
80776;SDS011;70169;51.262;6.336;2024-02-26T11:06:47;10.82;;;5.95;;
80776;SDS011;70169;51.262;6.336;2024-02-26T11:09:02;11.52;;;6.47;;
80776;SDS011;70169;51.262;6.336;2024-02-26T11:11:18;11.32;;;6.43;;
80776;SDS011;70169;51.262;6.336;2024-02-26T11:13:38;10.32;;;6.22;;
80776;SDS011;70169;51.262;6.336;2024-02-26T11:48:35;10.20;;;6.05;;
80776;SDS011;70169;51.262;6.336;2024-02-26T11:50:53;10.43;;;7.13;;
80776;SDS011;70169;51.262;6.336;2024-02-26T11:53:24;13.82;;;9.80;;
80776;SDS011;70169;51.262;6.336;2024-02-26T11:55:41;10.82;;;7.47;;
80776;SDS011;70169;51.262;6.336;2024-02-26T11:58:06;10.13;;;7.25;;
80776;SDS011;70169;51.262;6.336;2024-02-26T12:03:37;10.30;;;6.45;;
80776;SDS011;70169;51.262;6.336;2024-02-26T12:05:57;10.07;;;6.80;;
80776;SDS011;70169;51.262;6.336;2024-02-26T12:08:12;12.20;;;7.18;;
80776;SDS011;70169;51.262;6.336;2024-02-26T12:10:53;11.10;;;7.53;;
80776;SDS011;70169;51.262;6.336;2024-02-26T12:20:15;10.23;;;5.85;;
80776;SDS011;70169;51.262;6.336;2024-02-26T12:22:53;10.30;;;6.40;;
80776;SDS011;70169;51.262;6.336;2024-02-26T12:25:27;13.93;;;8.52;;
80776;SDS011;70169;51.262;6.336;2024-02-26T13:33:10;13.32;;;8.43;;
80776;SDS011;70169;51.262;6.336;2024-02-26T13:35:59;12.93;;;7.70;;
80776;SDS011;70169;51.262;6.336;2024-02-26T13:38:15;10.95;;;7.95;;
80776;SDS011;70169;51.262;6.336;2024-02-26T13:40:32;22.23;;;12.73;;
80776;SDS011;70169;51.262;6.336;2024-02-26T13:42:47;29.27;;;17.02;;
80776;SDS011;70169;51.262;6.336;2024-02-26T13:45:03;44.55;;;21.55;;
80776;SDS011;70169;51.262;6.336;2024-02-26T13:47:22;38.38;;;20.02;;
80776;SDS011;70169;51.262;6.336;2024-02-26T13:49:37;27.37;;;14.13;;
80776;SDS011;70169;51.262;6.336;2024-02-26T13:51:52;14.13;;;9.47;;
80776;SDS011;70169;51.262;6.336;2024-02-26T13:54:08;14.30;;;8.53;;
80776;SDS011;70169;51.262;6.336;2024-02-26T13:58:41;13.93;;;7.60;;
80776;SDS011;70169;51.262;6.336;2024-02-26T14:00:56;10.60;;;6.83;;
80776;SDS011;70169;51.262;6.336;2024-02-26T14:03:11;14.43;;;7.00;;
80776;SDS011;70169;51.262;6.336;2024-02-26T14:05:27;17.57;;;8.73;;
80776;SDS011;70169;51.262;6.336;2024-02-26T14:07:42;11.20;;;7.53;;
80776;SDS011;70169;51.262;6.336;2024-02-26T14:09:58;12.38;;;7.47;;
80776;SDS011;70169;51.262;6.336;2024-02-26T14:12:13;10.43;;;7.35;;
80776;SDS011;70169;51.262;6.336;2024-02-26T14:14:29;12.95;;;8.10;;
80776;SDS011;70169;51.262;6.336;2024-02-26T14:16:45;11.40;;;7.18;;
80776;SDS011;70169;51.262;6.336;2024-02-26T14:19:00;10.43;;;6.40;;
80776;SDS011;70169;51.262;6.336;2024-02-26T14:21:16;11.75;;;6.63;;
80776;SDS011;70169;51.262;6.336;2024-02-26T14:23:31;10.10;;;5.82;;
80776;SDS011;70169;51.262;6.336;2024-02-26T14:25:47;11.07;;;6.57;;
80776;SDS011;70169;51.262;6.336;2024-02-26T14:28:02;12.03;;;6.90;;
80776;SDS011;70169;51.262;6.336;2024-02-26T14:30:18;10.48;;;6.05;;
80776;SDS011;70169;51.262;6.336;2024-02-26T14:32:33;12.43;;;7.63;;
80776;SDS011;70169;51.262;6.336;2024-02-26T14:34:51;10.20;;;6.30;;
80776;SDS011;70169;51.262;6.336;2024-02-26T14:37:06;14.57;;;9.00;;
80776;SDS011;70169;51.262;6.336;2024-02-26T14:39:22;12.13;;;8.63;;
80776;SDS011;70169;51.262;6.336;2024-02-26T14:41:37;11.67;;;7.10;;
80776;SDS011;70169;51.262;6.336;2024-02-26T14:43:52;10.23;;;6.67;;
80776;SDS011;70169;51.262;6.336;2024-02-26T14:46:08;11.40;;;6.05;;
80776;SDS011;70169;51.262;6.336;2024-02-26T14:48:23;10.23;;;7.07;;
80776;SDS011;70169;51.262;6.336;2024-02-26T14:50:38;10.57;;;6.13;;
80776;SDS011;70169;51.262;6.336;2024-02-26T14:52:54;10.68;;;6.20;;
80776;SDS011;70169;51.262;6.336;2024-02-26T14:55:09;8.53;;;5.43;;
80776;SDS011;70169;51.262;6.336;2024-02-26T14:57:24;9.27;;;5.80;;
80776;SDS011;70169;51.262;6.336;2024-02-26T14:59:40;11.17;;;6.20;;
80776;SDS011;70169;51.262;6.336;2024-02-26T15:01:55;8.63;;;5.77;;
80776;SDS011;70169;51.262;6.336;2024-02-26T15:04:10;8.77;;;5.60;;
80776;SDS011;70169;51.262;6.336;2024-02-26T15:06:25;8.03;;;4.87;;
80776;SDS011;70169;51.262;6.336;2024-02-26T15:08:43;10.55;;;6.65;;
80776;SDS011;70169;51.262;6.336;2024-02-26T15:11:00;11.27;;;6.77;;
80776;SDS011;70169;51.262;6.336;2024-02-26T15:13:16;10.38;;;6.82;;
80776;SDS011;70169;51.262;6.336;2024-02-26T15:15:32;9.77;;;6.07;;
80776;SDS011;70169;51.262;6.336;2024-02-26T15:17:48;9.90;;;7.05;;
80776;SDS011;70169;51.262;6.336;2024-02-26T15:20:06;8.23;;;5.65;;
80776;SDS011;70169;51.262;6.336;2024-02-26T15:22:22;9.95;;;5.72;;
80776;SDS011;70169;51.262;6.336;2024-02-26T15:24:38;9.57;;;6.00;;
80776;SDS011;70169;51.262;6.336;2024-02-26T15:26:53;7.97;;;5.03;;
80776;SDS011;70169;51.262;6.336;2024-02-26T15:29:08;9.73;;;6.67;;
80776;SDS011;70169;51.262;6.336;2024-02-26T15:31:23;8.90;;;5.67;;
80776;SDS011;70169;51.262;6.336;2024-02-26T15:33:39;11.13;;;6.03;;
80776;SDS011;70169;51.262;6.336;2024-02-26T15:35:54;8.43;;;5.87;;
80776;SDS011;70169;51.262;6.336;2024-02-26T15:38:09;8.07;;;5.60;;
80776;SDS011;70169;51.262;6.336;2024-02-26T15:40:25;11.63;;;6.50;;
80776;SDS011;70169;51.262;6.336;2024-02-26T15:42:40;12.65;;;6.57;;
80776;SDS011;70169;51.262;6.336;2024-02-26T15:44:55;9.40;;;6.30;;
80776;SDS011;70169;51.262;6.336;2024-02-26T15:47:10;10.50;;;6.17;;
80776;SDS011;70169;51.262;6.336;2024-02-26T15:49:26;11.97;;;7.57;;
80776;SDS011;70169;51.262;6.336;2024-02-26T15:51:41;12.53;;;6.67;;
80776;SDS011;70169;51.262;6.336;2024-02-26T15:53:56;11.73;;;7.00;;
80776;SDS011;70169;51.262;6.336;2024-02-26T15:56:13;18.17;;;8.23;;
80776;SDS011;70169;51.262;6.336;2024-02-26T15:58:29;14.23;;;7.40;;
80776;SDS011;70169;51.262;6.336;2024-02-26T16:00:44;14.77;;;8.40;;
80776;SDS011;70169;51.262;6.336;2024-02-26T16:03:00;15.57;;;8.80;;
80776;SDS011;70169;51.262;6.336;2024-02-26T16:05:15;13.82;;;7.97;;
80776;SDS011;70169;51.262;6.336;2024-02-26T16:07:50;12.93;;;7.07;;
80776;SDS011;70169;51.262;6.336;2024-02-26T16:10:08;14.70;;;7.43;;
80776;SDS011;70169;51.262;6.336;2024-02-26T16:12:31;13.85;;;7.80;;
80776;SDS011;70169;51.262;6.336;2024-02-26T16:14:52;14.32;;;8.18;;
80776;SDS011;70169;51.262;6.336;2024-02-26T16:17:12;16.85;;;8.93;;
80776;SDS011;70169;51.262;6.336;2024-02-26T16:19:32;18.55;;;8.95;;
80776;SDS011;70169;51.262;6.336;2024-02-26T16:21:49;16.98;;;8.13;;
80776;SDS011;70169;51.262;6.336;2024-02-26T16:24:04;16.13;;;8.50;;
80776;SDS011;70169;51.262;6.336;2024-02-26T16:26:20;15.25;;;9.18;;
80776;SDS011;70169;51.262;6.336;2024-02-26T16:28:35;15.80;;;7.80;;
80776;SDS011;70169;51.262;6.336;2024-02-26T16:30:51;12.63;;;7.50;;
80776;SDS011;70169;51.262;6.336;2024-02-26T16:33:07;16.77;;;8.85;;
80776;SDS011;70169;51.262;6.336;2024-02-26T16:35:22;18.70;;;9.10;;
80776;SDS011;70169;51.262;6.336;2024-02-26T16:37:38;18.33;;;9.82;;
80776;SDS011;70169;51.262;6.336;2024-02-26T16:39:55;16.77;;;9.15;;
80776;SDS011;70169;51.262;6.336;2024-02-26T16:42:13;17.73;;;9.43;;